LFRK

Caen-Carpiquet Airport

Airport
ICAO code
LFRK
IATA Code
CFR
Summary
ICAO Region
EUR
ICAO Territory
Location

, Basse-Normandie

Serving
Caen
Elevation
256 ft
Coordinates
49° 10' 24" N , 0° 27' 0" W
Metar
Observation
LFRK 020000Z AUTO 04003KT 7000 NSC 01/01 Q1026
Station
Caen
Date/Time
2022-12-02 00:00:00
Wind direction
40°
Wind speed
03 kts
Lowest cloud amount
nil significant cloud
Temperature
1°C
Dew point
1°C
Humidity
100%
QNH
1026 hPa
Weather condition
n/a

Runways

Designator Length Width Surface Rops
6/24 1180 30 ASP No/No
13/31 1900 45 ASP No/No

Airport map

Aerial View

SKYbrary Partners:

Safety knowledge contributed by: